createdAt,value
2018-03-20T00:00:15.938Z,8.47
2018-03-20T00:02:44.090Z,8.67
2018-03-20T00:05:12.251Z,9.40
2018-03-20T00:07:50.080Z,7.97
2018-03-20T00:10:18.242Z,8.40
2018-03-20T00:12:46.377Z,7.67
2018-03-20T00:15:15.302Z,7.43
2018-03-20T00:17:43.447Z,8.30
2018-03-20T00:20:12.377Z,8.13
2018-03-20T00:22:40.519Z,7.50
2018-03-20T00:25:08.660Z,7.00
2018-03-20T00:27:36.821Z,7.17
2018-03-20T00:30:04.965Z,7.83
2018-03-20T00:32:33.137Z,7.07
2018-03-20T00:35:01.283Z,7.50
2018-03-20T00:37:43.803Z,7.47
2018-03-20T00:40:11.987Z,7.87
2018-03-20T00:42:40.178Z,7.77
2018-03-20T00:45:08.464Z,7.50
2018-03-20T00:47:41.257Z,7.10
2018-03-20T00:50:09.434Z,6.97
2018-03-20T00:52:37.637Z,6.93
2018-03-20T00:55:05.810Z,6.70
2018-03-20T00:57:42.226Z,6.47
2018-03-20T01:00:10.377Z,7.33
2018-03-20T01:02:38.574Z,6.57
2018-03-20T01:05:06.738Z,6.80
2018-03-20T01:07:47.955Z,7.20
2018-03-20T01:10:16.115Z,7.60
2018-03-20T01:12:44.262Z,7.47
2018-03-20T01:15:12.427Z,8.10
2018-03-20T01:17:48.118Z,7.90
2018-03-20T01:20:16.290Z,7.33
2018-03-20T01:22:44.439Z,9.23
2018-03-20T01:25:12.616Z,7.43
2018-03-20T01:27:43.690Z,8.40
2018-03-20T01:30:11.915Z,8.80
2018-03-20T01:32:40.071Z,9.33
2018-03-20T01:35:08.237Z,8.20
2018-03-20T01:37:37.229Z,8.17
2018-03-20T01:40:05.446Z,9.57
2018-03-20T01:42:34.526Z,8.80
2018-03-20T01:45:02.736Z,9.13
2018-03-20T01:47:36.224Z,8.77
2018-03-20T01:50:04.481Z,9.67
2018-03-20T01:52:32.699Z,9.33
2018-03-20T01:55:00.868Z,8.10
2018-03-20T01:57:29.102Z,8.50
2018-03-20T01:59:57.272Z,9.03
2018-03-20T02:02:25.506Z,9.30
2018-03-20T02:04:53.677Z,8.63
2018-03-20T02:07:24.587Z,8.77
2018-03-20T02:09:52.774Z,9.10
2018-03-20T02:12:21.062Z,9.23
2018-03-20T02:14:50.015Z,9.50
2018-03-20T02:17:21.359Z,9.67
2018-03-20T02:19:49.523Z,8.93
2018-03-20T02:22:17.786Z,8.53
2018-03-20T02:24:45.947Z,8.67
2018-03-20T02:27:19.147Z,8.87
2018-03-20T02:29:47.363Z,8.33
2018-03-20T02:32:15.588Z,8.53
2018-03-20T02:34:43.764Z,8.83
2018-03-20T02:37:11.952Z,7.83
2018-03-20T02:39:40.098Z,8.33
2018-03-20T02:42:08.288Z,8.70
2018-03-20T02:44:37.402Z,9.30
2018-03-20T02:47:15.941Z,8.90
2018-03-20T02:49:44.089Z,8.50
2018-03-20T02:52:12.237Z,9.00
2018-03-20T02:54:40.398Z,8.43
2018-03-20T02:57:13.434Z,8.77
2018-03-20T02:59:41.597Z,7.93
2018-03-20T03:02:09.749Z,7.87
2018-03-20T03:04:37.917Z,8.20
2018-03-20T03:07:10.530Z,7.17
2018-03-20T03:09:38.694Z,6.80
2018-03-20T03:12:06.842Z,8.47
2018-03-20T03:14:35.053Z,7.73
2018-03-20T03:17:12.123Z,8.07
2018-03-20T03:19:40.296Z,7.77
2018-03-20T03:22:09.395Z,7.47
2018-03-20T03:24:37.558Z,7.90
2018-03-20T03:27:05.710Z,7.77
2018-03-20T03:29:33.866Z,8.43
2018-03-20T03:32:02.775Z,7.30
2018-03-20T03:34:30.928Z,7.60
2018-03-20T03:37:00.814Z,8.20
2018-03-20T03:39:28.976Z,8.30
2018-03-20T03:41:57.142Z,8.33
2018-03-20T03:44:25.310Z,8.13
2018-03-20T03:46:53.461Z,7.67
2018-03-20T03:49:21.691Z,8.17
2018-03-20T03:51:49.842Z,8.33
2018-03-20T03:54:17.977Z,7.13
2018-03-20T03:56:47.144Z,7.80
2018-03-20T03:59:15.281Z,7.30
2018-03-20T04:01:43.474Z,7.63
2018-03-20T04:04:11.619Z,7.73
2018-03-20T04:06:42.817Z,8.77
2018-03-20T04:09:11.766Z,7.93
2018-03-20T04:11:39.929Z,7.13
2018-03-20T04:14:08.069Z,7.67
2018-03-20T04:16:36.994Z,7.03
2018-03-20T04:19:05.128Z,7.63
2018-03-20T04:21:34.054Z,8.43
2018-03-20T04:24:02.203Z,7.63
2018-03-20T04:26:30.450Z,7.97
2018-03-20T04:28:58.635Z,8.20
2018-03-20T04:31:27.635Z,7.80
2018-03-20T04:33:56.635Z,8.40
2018-03-20T04:36:25.787Z,8.30
2018-03-20T04:38:54.007Z,8.40
2018-03-20T04:41:22.251Z,9.40
2018-03-20T04:43:50.483Z,7.70
2018-03-20T04:46:22.037Z,8.00
2018-03-20T04:48:50.254Z,7.37
2018-03-20T04:51:18.430Z,8.13
2018-03-20T04:53:46.678Z,7.57
2018-03-20T04:56:14.880Z,9.27
2018-03-20T04:58:43.082Z,8.30
2018-03-20T05:01:11.283Z,7.67
2018-03-20T05:03:39.490Z,7.87
2018-03-20T05:06:07.639Z,7.77
2018-03-20T05:08:35.800Z,8.13
2018-03-20T05:11:03.966Z,6.87
2018-03-20T05:13:32.129Z,7.47
2018-03-20T05:16:10.770Z,8.27
2018-03-20T05:21:49.665Z,8.63
2018-03-20T05:24:18.594Z,8.30
2018-03-20T05:27:01.082Z,8.43
2018-03-20T05:29:30.014Z,8.50
2018-03-20T05:31:58.153Z,8.70
2018-03-20T05:34:26.367Z,8.73
2018-03-20T05:37:08.849Z,9.23
2018-03-20T05:39:37.046Z,9.37
2018-03-20T05:42:05.197Z,8.77
2018-03-20T05:44:33.394Z,10.83
2018-03-20T05:50:12.188Z,9.40
2018-03-20T05:52:41.114Z,9.70
2018-03-20T05:55:09.286Z,8.60
2018-03-20T05:57:45.144Z,9.87
2018-03-20T06:00:13.303Z,7.60
2018-03-20T06:02:41.471Z,9.13
2018-03-20T06:05:09.639Z,7.43
2018-03-20T06:07:37.778Z,9.33
2018-03-20T06:10:05.922Z,7.20
2018-03-20T06:12:34.089Z,9.80
2018-03-20T06:15:02.241Z,9.47
2018-03-20T06:17:30.406Z,10.20
2018-03-20T06:19:58.545Z,9.80
2018-03-20T06:22:26.706Z,8.43
2018-03-20T06:24:54.851Z,10.97
2018-03-20T06:27:23.023Z,9.47
2018-03-20T06:29:51.212Z,9.33
2018-03-20T06:32:19.365Z,8.87
2018-03-20T06:34:47.518Z,10.10
2018-03-20T06:37:18.865Z,9.47
2018-03-20T06:39:47.016Z,9.17
2018-03-20T06:42:16.011Z,8.67
2018-03-20T06:44:44.971Z,8.47
2018-03-20T06:47:13.130Z,8.80
2018-03-20T06:49:41.398Z,7.93
2018-03-20T06:52:09.598Z,8.87
2018-03-20T06:54:37.835Z,8.70
2018-03-20T06:57:06.963Z,8.17
2018-03-20T06:59:35.215Z,7.67
2018-03-20T07:02:04.124Z,8.73
2018-03-20T07:04:32.386Z,7.80
2018-03-20T07:07:01.567Z,8.17
2018-03-20T07:09:29.776Z,7.23
2018-03-20T07:11:57.982Z,9.00
2018-03-20T07:14:26.922Z,9.00
2018-03-20T07:16:55.110Z,8.40
2018-03-20T07:19:23.310Z,7.93
2018-03-20T07:21:51.475Z,9.33
2018-03-20T07:24:19.622Z,9.10
2018-03-20T07:26:51.795Z,9.50
2018-03-20T07:29:19.942Z,10.50
2018-03-20T07:31:48.107Z,8.57
2018-03-20T07:34:16.246Z,7.87
2018-03-20T07:36:44.441Z,6.70
2018-03-20T07:39:12.659Z,7.53
2018-03-20T07:41:40.848Z,7.00
2018-03-20T07:44:09.014Z,7.33
2018-03-20T07:46:47.688Z,7.37
2018-03-20T07:49:15.858Z,7.83
2018-03-20T07:51:44.074Z,8.10
2018-03-20T07:54:12.244Z,8.27
2018-03-20T07:56:50.656Z,8.50
2018-03-20T07:59:18.802Z,7.73
2018-03-20T08:01:46.979Z,7.03
2018-03-20T08:04:15.165Z,7.90
2018-03-20T08:06:46.779Z,7.43
2018-03-20T08:09:15.746Z,8.00
2018-03-20T08:11:43.935Z,8.57
2018-03-20T08:14:12.135Z,9.17
2018-03-20T08:16:40.348Z,8.90
2018-03-20T08:19:08.583Z,8.70
2018-03-20T08:21:36.773Z,7.60
2018-03-20T08:24:04.964Z,6.87
2018-03-20T08:26:36.614Z,7.47
2018-03-20T08:29:04.795Z,7.83
2018-03-20T08:31:32.933Z,8.10
2018-03-20T08:34:01.094Z,8.07
2018-03-20T08:36:30.964Z,7.10
2018-03-20T08:38:59.142Z,7.77
2018-03-20T08:41:27.300Z,7.63
2018-03-20T08:43:55.447Z,8.23
2018-03-20T08:46:31.050Z,7.83
2018-03-20T08:48:59.191Z,7.30
2018-03-20T08:51:27.380Z,7.67
2018-03-20T08:53:55.518Z,7.10
2018-03-20T08:56:33.962Z,7.07
2018-03-20T08:59:02.134Z,7.33
2018-03-20T09:01:30.293Z,6.60
2018-03-20T09:03:58.456Z,7.70
2018-03-20T09:06:44.587Z,6.57
2018-03-20T09:09:12.839Z,5.73
2018-03-20T09:11:48.758Z,5.17
2018-03-20T09:14:17.693Z,8.63
2018-03-20T09:16:45.878Z,4.67
2018-03-20T09:19:15.182Z,5.23
2018-03-20T09:21:43.382Z,4.60
2018-03-20T09:24:12.327Z,6.20
2018-03-20T09:26:42.540Z,4.43
2018-03-20T09:29:10.748Z,10.43
2018-03-20T09:31:39.009Z,4.60
2018-03-20T09:34:08.043Z,5.27
2018-03-20T09:36:36.291Z,4.30
2018-03-20T09:39:04.514Z,5.07
2018-03-20T09:41:32.737Z,5.40
2018-03-20T09:44:00.982Z,4.37
2018-03-20T09:46:32.557Z,4.83
2018-03-20T09:49:00.787Z,4.70
2018-03-20T09:51:28.926Z,5.30
2018-03-20T09:53:57.081Z,5.07
2018-03-20T09:56:27.179Z,4.47
2018-03-20T09:58:55.330Z,4.23
2018-03-20T10:01:23.521Z,4.93
2018-03-20T10:03:51.714Z,5.37
2018-03-20T10:06:20.796Z,5.57
2018-03-20T10:08:48.950Z,4.83
2018-03-20T10:11:17.166Z,5.27
2018-03-20T10:13:45.319Z,5.17
2018-03-20T10:16:21.571Z,4.50
2018-03-20T10:18:49.759Z,5.37
2018-03-20T10:21:17.906Z,4.10
2018-03-20T10:23:46.076Z,4.67
2018-03-20T10:26:14.222Z,4.47
2018-03-20T10:28:42.359Z,4.93
2018-03-20T10:31:10.505Z,4.70
2018-03-20T10:33:38.634Z,5.47
2018-03-20T10:36:07.178Z,5.83
2018-03-20T10:38:35.314Z,6.37
2018-03-20T10:41:04.292Z,6.73
2018-03-20T10:43:33.287Z,6.50
2018-03-20T10:46:03.258Z,5.97
2018-03-20T10:48:31.463Z,7.40
2018-03-20T10:50:59.741Z,7.20
2018-03-20T10:53:27.894Z,7.93
2018-03-20T10:56:04.329Z,6.67
2018-03-20T10:58:32.531Z,8.03
2018-03-20T11:01:06.504Z,6.47
2018-03-20T11:03:34.699Z,8.10
2018-03-20T11:06:06.663Z,7.63
2018-03-20T11:08:35.487Z,7.10
2018-03-20T11:11:03.683Z,6.77
2018-03-20T11:13:32.579Z,7.53
2018-03-20T11:16:01.478Z,6.37
2018-03-20T11:18:29.629Z,9.73
2018-03-20T11:20:58.534Z,6.77
2018-03-20T11:23:26.698Z,6.67
2018-03-20T11:25:55.603Z,6.90
2018-03-20T11:28:23.804Z,6.77
2018-03-20T11:30:51.989Z,9.87
2018-03-20T11:33:20.155Z,6.37
2018-03-20T11:35:51.929Z,5.83
2018-03-20T11:38:20.212Z,6.60
2018-03-20T11:40:48.370Z,6.77
2018-03-20T11:43:16.560Z,5.57
2018-03-20T11:45:44.769Z,6.10
2018-03-20T11:48:13.710Z,6.63
2018-03-20T11:50:41.890Z,5.87
2018-03-20T11:53:10.097Z,6.37
2018-03-20T11:55:38.342Z,6.03
2018-03-20T11:58:06.579Z,6.60
2018-03-20T12:00:34.878Z,6.10
2018-03-20T12:03:03.059Z,6.73
2018-03-20T12:05:31.256Z,6.33
2018-03-20T12:07:59.425Z,6.33
2018-03-20T12:10:42.172Z,6.70
2018-03-20T12:13:10.322Z,6.53
2018-03-20T12:15:38.465Z,7.03
2018-03-20T12:18:06.606Z,6.90
2018-03-20T12:20:34.871Z,6.47
2018-03-20T12:23:03.087Z,7.40
2018-03-20T12:25:31.237Z,6.83
2018-03-20T12:27:59.370Z,7.10
2018-03-20T12:30:28.299Z,7.33
2018-03-20T12:32:56.508Z,7.23
2018-03-20T12:35:24.664Z,7.20
2018-03-20T12:37:54.771Z,6.83
2018-03-20T12:40:22.936Z,7.23
2018-03-20T12:42:51.082Z,6.97
2018-03-20T12:45:20.004Z,7.23
2018-03-20T12:47:53.344Z,7.50
2018-03-20T12:50:21.603Z,7.00
2018-03-20T12:52:49.777Z,7.10
2018-03-20T12:55:17.966Z,7.67
2018-03-20T12:57:50.564Z,6.50
2018-03-20T13:00:19.621Z,7.93
2018-03-20T13:02:47.818Z,17.63
2018-03-20T13:05:15.972Z,15.83
2018-03-20T13:07:46.165Z,8.50
2018-03-20T13:10:14.372Z,8.33
2018-03-20T13:12:42.581Z,8.63
2018-03-20T13:15:10.828Z,9.87
2018-03-20T13:17:40.021Z,8.40
2018-03-20T13:20:08.229Z,8.00
2018-03-20T13:22:36.628Z,7.50
2018-03-20T13:27:33.634Z,7.63
2018-03-20T13:30:01.827Z,8.13
2018-03-20T13:32:31.031Z,8.37
2018-03-20T13:35:00.014Z,8.70
2018-03-20T13:37:29.172Z,8.10
2018-03-20T13:39:57.425Z,8.10
2018-03-20T13:42:25.636Z,8.53
2018-03-20T13:44:53.889Z,7.97
2018-03-20T13:47:22.181Z,7.93
2018-03-20T13:49:50.376Z,8.67
2018-03-20T13:52:18.599Z,8.60
2018-03-20T13:54:46.832Z,8.03
2018-03-20T13:57:15.991Z,8.27
2018-03-20T13:59:45.179Z,9.20
2018-03-20T14:02:13.797Z,8.30
2018-03-20T14:04:42.046Z,8.07
2018-03-20T14:07:21.948Z,7.93
2018-03-20T14:09:50.898Z,9.63
2018-03-20T14:12:19.074Z,8.53
2018-03-20T14:14:47.341Z,7.87
2018-03-20T14:17:16.476Z,7.10
2018-03-20T14:19:45.491Z,7.77
2018-03-20T14:22:14.406Z,7.67
2018-03-20T14:24:42.558Z,8.27
2018-03-20T14:27:10.699Z,8.30
2018-03-20T14:29:38.854Z,8.00
2018-03-20T14:32:06.982Z,8.17
2018-03-20T14:34:35.136Z,9.10
2018-03-20T14:37:20.820Z,7.23
2018-03-20T14:39:49.748Z,7.23
2018-03-20T14:42:17.905Z,7.63
2018-03-20T14:44:46.082Z,8.23
2018-03-20T14:47:14.230Z,7.37
2018-03-20T14:49:43.143Z,7.90
2018-03-20T14:52:11.314Z,7.83
2018-03-20T14:54:39.494Z,8.30
2018-03-20T14:57:07.651Z,7.70
2018-03-20T14:59:36.555Z,7.63
2018-03-20T15:02:04.714Z,7.73
2018-03-20T15:04:33.613Z,7.90
2018-03-20T15:07:05.706Z,6.97
2018-03-20T15:09:33.830Z,8.03
2018-03-20T15:12:01.986Z,7.53
2018-03-20T15:14:30.124Z,8.17
2018-03-20T15:17:12.304Z,6.97
2018-03-20T15:19:40.455Z,6.77
2018-03-20T15:22:09.379Z,7.73
2018-03-20T15:24:37.513Z,7.10
2018-03-20T15:27:21.338Z,6.93
2018-03-20T15:29:49.477Z,7.50
2018-03-20T15:32:18.395Z,7.40
2018-03-20T15:34:46.561Z,7.30
2018-03-20T15:37:14.727Z,8.17
2018-03-20T15:39:42.867Z,9.10
2018-03-20T15:42:18.505Z,7.60
2018-03-20T15:44:46.650Z,6.90
2018-03-20T15:47:14.854Z,8.00
2018-03-20T15:49:42.994Z,9.30
2018-03-20T15:52:11.174Z,7.57
2018-03-20T15:54:39.346Z,7.60
2018-03-20T15:57:07.482Z,8.93
2018-03-20T15:59:35.642Z,7.83
2018-03-20T16:02:03.797Z,7.73
2018-03-20T16:04:31.949Z,7.40
2018-03-20T16:07:00.854Z,8.10
2018-03-20T16:09:29.778Z,10.33
2018-03-20T16:11:57.910Z,13.77
2018-03-20T16:14:26.831Z,9.43
2018-03-20T16:16:55.966Z,8.80
2018-03-20T16:19:24.146Z,7.87
2018-03-20T16:21:52.282Z,8.57
2018-03-20T16:24:20.449Z,7.50
2018-03-20T16:26:49.365Z,7.07
2018-03-20T16:29:17.531Z,7.80
2018-03-20T16:31:45.662Z,7.53
2018-03-20T16:34:14.582Z,8.47
2018-03-20T16:36:43.689Z,7.20
2018-03-20T16:39:11.855Z,7.80
2018-03-20T16:41:40.002Z,7.30
2018-03-20T16:44:08.161Z,7.57
2018-03-20T16:46:36.338Z,8.53
2018-03-20T16:49:04.457Z,7.00
2018-03-20T16:51:32.616Z,8.30
2018-03-20T16:54:00.751Z,8.07
2018-03-20T16:56:29.667Z,7.37
2018-03-20T16:58:57.795Z,7.03
2018-03-20T17:01:25.962Z,8.30
2018-03-20T17:03:54.196Z,7.67
2018-03-20T17:06:22.448Z,7.70
2018-03-20T17:08:50.608Z,8.03
2018-03-20T17:11:19.561Z,7.50
2018-03-20T17:13:47.719Z,8.33
2018-03-20T17:16:19.639Z,8.53
2018-03-20T17:18:47.813Z,7.70
2018-03-20T17:21:16.841Z,7.90
2018-03-20T17:23:45.067Z,8.07
2018-03-20T17:26:13.286Z,9.37
2018-03-20T17:28:41.526Z,9.17
2018-03-20T17:31:10.482Z,9.30
2018-03-20T17:33:38.699Z,9.20
2018-03-20T17:36:06.842Z,9.33
2018-03-20T17:38:34.988Z,9.33
2018-03-20T17:41:03.164Z,9.37
2018-03-20T17:43:31.298Z,10.50
2018-03-20T17:46:00.443Z,10.77
2018-03-20T17:48:28.577Z,10.17
2018-03-20T17:50:56.754Z,11.00
2018-03-20T17:53:24.887Z,11.37
2018-03-20T17:56:20.506Z,10.30
2018-03-20T17:58:48.641Z,9.40
2018-03-20T18:01:16.786Z,8.30
2018-03-20T18:03:44.913Z,7.67
2018-03-20T18:06:15.002Z,7.73
2018-03-20T18:08:43.138Z,6.90
2018-03-20T18:11:11.297Z,8.03
2018-03-20T18:13:41.062Z,7.50
2018-03-20T18:16:09.234Z,6.03
2018-03-20T18:18:37.375Z,6.83
2018-03-20T18:21:05.516Z,7.57
2018-03-20T18:23:33.677Z,6.90
2018-03-20T18:26:01.942Z,6.40
2018-03-20T18:28:30.099Z,5.70
2018-03-20T18:30:58.242Z,5.57
2018-03-20T18:33:26.407Z,5.80
2018-03-20T18:35:59.727Z,4.97
2018-03-20T18:38:27.895Z,4.60
2018-03-20T18:40:56.875Z,5.03
2018-03-20T18:43:25.077Z,4.63
2018-03-20T18:45:56.469Z,4.33
2018-03-20T18:48:24.707Z,4.17
2018-03-20T18:50:52.884Z,4.07
2018-03-20T18:53:21.118Z,4.33
2018-03-20T18:55:57.002Z,4.40
2018-03-20T18:58:25.215Z,4.47
2018-03-20T19:00:53.397Z,4.43
2018-03-20T19:03:22.443Z,4.40
2018-03-20T19:05:58.493Z,3.53
2018-03-20T19:08:26.731Z,4.00
2018-03-20T19:10:55.683Z,4.07
2018-03-20T19:13:23.875Z,4.10
2018-03-20T19:15:52.083Z,4.00
2018-03-20T19:18:21.306Z,3.87
2018-03-20T19:20:49.506Z,4.70
2018-03-20T19:23:17.688Z,3.53
2018-03-20T19:25:49.452Z,4.10
2018-03-20T19:28:17.687Z,4.60
2018-03-20T19:30:45.838Z,4.47
2018-03-20T19:33:14.035Z,4.80
2018-03-20T19:35:45.930Z,4.60
2018-03-20T19:38:14.171Z,4.53
2018-03-20T19:40:42.362Z,4.60
2018-03-20T19:43:10.564Z,4.93
2018-03-20T19:45:38.760Z,4.20
2018-03-20T19:48:07.719Z,4.73
2018-03-20T19:50:35.982Z,4.40
2018-03-20T19:53:04.156Z,4.27
2018-03-20T19:55:32.333Z,5.00
2018-03-20T19:58:00.545Z,4.80
2018-03-20T20:00:29.523Z,4.77
2018-03-20T20:02:57.727Z,4.87
2018-03-20T20:05:25.940Z,4.33
2018-03-20T20:08:01.507Z,4.23
2018-03-20T20:10:29.771Z,4.27
2018-03-20T20:12:58.008Z,5.37
2018-03-20T20:15:26.221Z,7.07
2018-03-20T20:17:54.447Z,14.67
2018-03-20T20:20:22.781Z,24.70
2018-03-20T20:22:51.660Z,28.47
2018-03-20T20:25:19.891Z,31.57
2018-03-20T20:27:49.052Z,15.90
2018-03-20T20:30:17.319Z,7.57
2018-03-20T20:32:45.543Z,6.90
2018-03-20T20:35:13.792Z,6.53
2018-03-20T20:37:43.715Z,5.90
2018-03-20T20:40:12.712Z,4.97
2018-03-20T20:42:41.689Z,5.30
2018-03-20T20:45:10.673Z,5.77
2018-03-20T20:47:38.875Z,5.30
2018-03-20T20:50:07.131Z,5.90
2018-03-20T20:52:36.153Z,5.87
2018-03-20T20:55:04.371Z,5.60
2018-03-20T20:57:33.600Z,5.70
2018-03-20T21:00:01.823Z,6.27
2018-03-20T21:02:30.071Z,5.90
2018-03-20T21:04:58.325Z,6.47
2018-03-20T21:07:38.600Z,5.50
2018-03-20T21:10:06.769Z,5.27
2018-03-20T21:12:34.978Z,5.17
2018-03-20T21:15:03.168Z,5.30
2018-03-20T21:17:34.419Z,4.67
2018-03-20T21:20:02.631Z,4.57
2018-03-20T21:22:31.647Z,4.80
2018-03-20T21:24:59.892Z,5.23
2018-03-20T21:27:28.949Z,5.63
2018-03-20T21:29:57.163Z,5.23
2018-03-20T21:32:26.177Z,4.87
2018-03-20T21:34:54.412Z,5.73
2018-03-20T21:37:37.565Z,7.40
2018-03-20T21:40:06.578Z,6.40
2018-03-20T21:42:34.866Z,5.50
2018-03-20T21:45:03.059Z,5.27
2018-03-20T21:47:48.254Z,5.87
2018-03-20T21:50:17.135Z,5.57
2018-03-20T21:52:45.320Z,5.07
2018-03-20T21:55:13.479Z,5.80
2018-03-20T21:57:41.685Z,5.47
2018-03-20T22:00:10.688Z,4.30
2018-03-20T22:02:38.882Z,5.10
2018-03-20T22:05:07.022Z,4.30
2018-03-20T22:07:35.195Z,4.47
2018-03-20T22:10:04.228Z,4.30
2018-03-20T22:12:32.499Z,3.97
2018-03-20T22:15:00.645Z,4.53
2018-03-20T22:17:34.729Z,3.93
2018-03-20T22:20:02.880Z,4.13
2018-03-20T22:22:31.074Z,3.83
2018-03-20T22:24:59.243Z,4.20
2018-03-20T22:27:28.382Z,4.10
2018-03-20T22:29:56.539Z,3.87
2018-03-20T22:32:25.531Z,3.80
2018-03-20T22:34:53.746Z,4.40
2018-03-20T22:37:24.923Z,3.87
2018-03-20T22:39:53.080Z,4.13
2018-03-20T22:42:21.274Z,4.00
2018-03-20T22:44:49.409Z,3.57
2018-03-20T22:47:26.942Z,4.33
2018-03-20T22:49:55.104Z,4.20
2018-03-20T22:52:23.254Z,4.80
2018-03-20T22:54:51.418Z,4.40
2018-03-20T22:57:23.696Z,4.07
2018-03-20T22:59:51.872Z,4.87
2018-03-20T23:02:20.024Z,5.40
2018-03-20T23:04:48.206Z,4.93
2018-03-20T23:07:23.969Z,5.53
2018-03-20T23:09:52.122Z,5.53
2018-03-20T23:12:20.260Z,5.97
2018-03-20T23:14:48.414Z,4.37
2018-03-20T23:17:21.994Z,5.40
2018-03-20T23:19:50.158Z,4.60
2018-03-20T23:22:18.303Z,5.17
2018-03-20T23:24:46.478Z,4.57
2018-03-20T23:27:21.850Z,5.13
2018-03-20T23:29:50.014Z,4.53
2018-03-20T23:32:18.160Z,4.47
2018-03-20T23:34:47.086Z,5.03
2018-03-20T23:37:18.942Z,4.77
2018-03-20T23:39:47.097Z,4.50
2018-03-20T23:42:15.247Z,5.00
2018-03-20T23:44:44.247Z,4.23
2018-03-20T23:47:14.414Z,5.27
2018-03-20T23:49:42.578Z,4.50
2018-03-20T23:52:10.722Z,5.37
2018-03-20T23:54:39.650Z,4.63
2018-03-20T23:57:07.788Z,4.77
2018-03-20T23:59:35.952Z,4.53
